Bloomfield, NM (87413)

8:03 PM MDT on July 24, 2016 (GMT -0600)
Crouch Mesa | | Change Station

Elev 5876 ft 36.77 °N, 108.06 °W | Updated 8 seconds ago

Partly Cloudy
Partly Cloudy
87.3 °F
Feels Like 84 °F
N
2.2
Wind Variable Wind from East
Gusts 2.2 mph

Today
High -- | Low -- °F
--% Chance of Precip.
Yesterday
High -- | Low -- °F
Precip. -- in
Pressure 29.88 in
Visibility 10.0 miles
Clouds Few 9500 ft
Few 11000 ft
Heat Index 84 °F
Dew Point 46 °F
Humidity 24%
Rainfall 0.00 in
Snow Depth Not available.
6:11 AM 8:24 PM
Waning Gibbous, 71% visible
METAR KFMN 250153Z 06003KT 10SM FEW095 FEW110 32/03 A3010 RMK AO2 SLP118 T03170028
Pressure 29.88 in
Visibility 10.0 miles
Clouds Few 9500 ft
Few 11000 ft
Heat Index 84 °F
Dew Point 46 °F
Humidity 24%
Rainfall 0.00 in
Snow Depth Not available.
6:11 AM 8:24 PM
Waning Gibbous, 71% visible
METAR KFMN 250153Z 06003KT 10SM FEW095 FEW110 32/03 A3010 RMK AO2 SLP118 T03170028

10-Day Weather Forecast

Almanac

Astronomy

Jul. 24, 2016 Rise Set
Actual Time
Civil Twilight
Nautical Twilight
Astronomical Twilight
Moon
Length of Visible Light
Length of Day
Tomorrow will be .
, % of the Moon is Illuminated

Today's Extremes

State Highs State Lows

Community

WunderPhotos

Upload Photos

1,927,233 photos uploaded!

WunderBlog® & News

Nearby

Air Quality

  Air Quality AQ Index Pollutant
Not available.

Snow Depth

Station Depth Elevation

Earthquake Activity

City Distance Mag. Time & Date
Minimum magnitude displayed is 2.5.

Coastal Water Temperatures

Place Temperature

Stations

Nearby Weather Stations

Station Location Temp. Windchill Dew Point Humidity Wind Precip. Elev Updated Type
                   

Watches & Warnings

There are currently no watches in effect.